Sereno, Missouri
Current Conditions -  °F | °C
As of 10:35 PM on Friday 19 Dec 2014 (Local Time) from KFAM Reporting Station
Overcast Overcast  
Wind Chill: 34°   Ceiling: 4900
Heat Index: 34°   Visibility: 7mi
Dew Point: 32°   Wind: 0mph
Humidity: 93%   Direction: NA
Pressure: 30.26"   Gusts: NA
Location:  37.7127°N, 89.8903°W
Report Text: KFAM 200435Z AUTO 00000KT 7SM FEW029 OVC049 01/00 A3026 RMK AO1
Loading
Personal Weather Stations






























Interactive Weather Map New forecast layout! Learn more

10-Day Weather Forecast

Advertisements
Track Severe Weather on mobile